createdAt,value
2018-04-30T00:00:34.726Z,87.17
2018-04-30T00:01:34.723Z,87.46
2018-04-30T00:02:34.714Z,87.55
2018-04-30T00:03:34.709Z,87.37
2018-04-30T00:04:34.713Z,87.74
2018-04-30T00:05:34.699Z,87.27
2018-04-30T00:06:34.698Z,87.65
2018-04-30T00:07:34.690Z,87.65
2018-04-30T00:08:34.689Z,87.65
2018-04-30T00:09:34.684Z,87.84
2018-04-30T00:10:34.690Z,87.46
2018-04-30T00:11:34.672Z,87.46
2018-04-30T00:12:34.704Z,87.37
2018-04-30T00:13:34.668Z,87.55
2018-04-30T00:14:34.660Z,87.27
2018-04-30T00:15:34.653Z,87.46
2018-04-30T00:16:34.648Z,87.27
2018-04-30T00:17:34.644Z,86.79
2018-04-30T00:18:34.648Z,87.46
2018-04-30T00:19:34.640Z,87.37
2018-04-30T00:20:34.629Z,87.65
2018-04-30T00:21:34.628Z,87.74
2018-04-30T00:22:34.624Z,87.65
2018-04-30T00:23:34.621Z,87.65
2018-04-30T00:24:34.613Z,87.37
2018-04-30T00:25:34.611Z,87.74
2018-04-30T00:26:34.608Z,87.65
2018-04-30T00:27:34.602Z,87.46
2018-04-30T00:28:34.597Z,87.74
2018-04-30T00:29:34.596Z,87.27
2018-04-30T00:30:34.596Z,87.55
2018-04-30T00:31:34.579Z,87.65
2018-04-30T00:32:34.574Z,87.37
2018-04-30T00:33:34.671Z,87.46
2018-04-30T00:34:34.577Z,87.55
2018-04-30T00:35:34.562Z,87.55
2018-04-30T00:36:34.560Z,87.55
2018-04-30T00:37:34.556Z,87.55
2018-04-30T00:38:34.546Z,87.55
2018-04-30T00:39:34.551Z,87.55
2018-04-30T00:40:34.539Z,87.37
2018-04-30T00:41:34.539Z,87.74
2018-04-30T00:42:34.276Z,87.74
2018-04-30T00:43:34.277Z,87.46
2018-04-30T00:44:34.519Z,87.55
2018-04-30T00:45:34.517Z,87.65
2018-04-30T00:46:34.510Z,87.94
2018-04-30T00:47:34.508Z,87.65
2018-04-30T00:48:34.500Z,87.55
2018-04-30T00:49:34.497Z,87.55
2018-04-30T00:50:34.492Z,88.23
2018-04-30T00:51:34.487Z,88.32
2018-04-30T00:52:34.481Z,88.13
2018-04-30T00:53:34.480Z,87.74
2018-04-30T00:54:34.480Z,88.13
2018-04-30T00:55:34.472Z,87.94
2018-04-30T00:56:34.211Z,88.03
2018-04-30T00:57:34.207Z,87.74
2018-04-30T00:58:34.455Z,88.23
2018-04-30T00:59:34.462Z,87.46
2018-04-30T01:00:34.447Z,88.13
2018-04-30T01:01:34.442Z,88.23
2018-04-30T01:02:34.437Z,88.23
2018-04-30T01:03:34.622Z,88.32
2018-04-30T01:04:34.427Z,88.23
2018-04-30T01:05:34.423Z,88.61
2018-04-30T01:06:34.420Z,88.7
2018-04-30T01:07:34.420Z,88.32
2018-04-30T01:08:34.413Z,88.9
2018-04-30T01:09:34.407Z,88.99
2018-04-30T01:10:34.146Z,88.99
2018-04-30T01:11:34.398Z,89.09
2018-04-30T01:12:34.392Z,88.7
2018-04-30T01:13:34.138Z,88.9
2018-04-30T01:14:34.380Z,88.61
2018-04-30T01:15:34.375Z,89.09
2018-04-30T01:16:34.372Z,89.18
2018-04-30T01:17:34.367Z,89.18
2018-04-30T01:18:34.361Z,89.66
2018-04-30T01:19:34.360Z,89.66
2018-04-30T01:20:34.380Z,89.37
2018-04-30T01:21:34.346Z,89.62
2018-04-30T01:22:34.340Z,89.66
2018-04-30T01:23:34.338Z,89.76
2018-04-30T01:24:34.337Z,89.9
2018-04-30T01:25:34.328Z,90.29
2018-04-30T01:26:34.329Z,90.48
2018-04-30T01:27:34.065Z,90.09
2018-04-30T01:28:34.324Z,90.09
2018-04-30T01:29:34.307Z,89.72
2018-04-30T01:30:34.302Z,90
2018-04-30T01:31:34.299Z,89.9
2018-04-30T01:32:34.296Z,90
2018-04-30T01:33:34.287Z,90.19
2018-04-30T01:34:34.283Z,90.39
2018-04-30T01:35:34.279Z,90.48
2018-04-30T01:36:34.284Z,90.58
2018-04-30T01:37:34.268Z,91.15
2018-04-30T01:38:34.269Z,90.77
2018-04-30T01:39:34.259Z,90.96
2018-04-30T01:40:34.001Z,91.53
2018-04-30T01:41:34.255Z,91.44
2018-04-30T01:42:34.248Z,91.25
2018-04-30T01:43:34.245Z,91.34
2018-04-30T01:44:34.235Z,91.53
2018-04-30T01:45:34.232Z,91.63
2018-04-30T01:46:34.227Z,91.34
2018-04-30T01:47:34.222Z,91.53
2018-04-30T01:48:34.215Z,91.25
2018-04-30T01:49:34.209Z,91.53
2018-04-30T01:50:34.209Z,91.34
2018-04-30T01:51:34.198Z,91.63
2018-04-30T01:52:34.194Z,91.53
2018-04-30T01:53:34.189Z,91.53
2018-04-30T01:54:34.185Z,92.01
2018-04-30T01:55:34.187Z,92.01
2018-04-30T01:56:34.178Z,92.01
2018-04-30T01:57:34.169Z,92.01
2018-04-30T01:58:33.913Z,91.63
2018-04-30T01:59:34.159Z,91.53
2018-04-30T02:00:34.161Z,92.01
2018-04-30T02:01:34.151Z,91.97
2018-04-30T02:02:34.143Z,92.01
2018-04-30T02:03:34.144Z,92.01
2018-04-30T02:04:33.884Z,92.3
2018-04-30T02:05:34.130Z,92.21
2018-04-30T02:06:34.130Z,91.92
2018-04-30T02:07:34.123Z,92.49
2018-04-30T02:08:33.862Z,92.01
2018-04-30T02:09:34.108Z,92.01
2018-04-30T02:10:34.113Z,92.01
2018-04-30T02:11:34.098Z,91.82
2018-04-30T02:12:34.104Z,91.92
2018-04-30T02:13:34.096Z,92.3
2018-04-30T02:14:34.084Z,92.4
2018-04-30T02:15:34.079Z,92.49
2018-04-30T02:16:34.073Z,92.3
2018-04-30T02:17:34.072Z,92.54
2018-04-30T02:18:34.065Z,92.58
2018-04-30T02:19:34.059Z,92.54
2018-04-30T02:20:34.058Z,92.54
2018-04-30T02:21:34.047Z,92.83
2018-04-30T02:22:34.043Z,92.83
2018-04-30T02:23:34.038Z,93.02
2018-04-30T02:24:34.032Z,93.02
2018-04-30T02:25:34.030Z,92.92
2018-04-30T02:26:34.022Z,92.83
2018-04-30T02:27:34.017Z,92.92
2018-04-30T02:28:33.758Z,92.92
2018-04-30T02:29:34.007Z,93.02
2018-04-30T02:30:33.841Z,92.92
2018-04-30T02:31:33.997Z,93.02
2018-04-30T02:32:33.991Z,93.02
2018-04-30T02:33:34.067Z,93.02
2018-04-30T02:34:33.987Z,93.4
2018-04-30T02:35:33.974Z,93.5
2018-04-30T02:36:33.977Z,93.4
2018-04-30T02:37:33.968Z,92.63
2018-04-30T02:38:33.960Z,93.59
2018-04-30T02:39:34.018Z,93.3
2018-04-30T02:40:33.954Z,93.4
2018-04-30T02:41:33.950Z,93.21
2018-04-30T02:42:33.939Z,93.5
2018-04-30T02:43:33.696Z,93.4
2018-04-30T02:44:33.929Z,92.73
2018-04-30T02:45:33.934Z,92.63
2018-04-30T02:46:33.920Z,93.12
2018-04-30T02:47:33.912Z,93.79
2018-04-30T02:48:33.912Z,93.69
2018-04-30T02:49:33.902Z,93.69
2018-04-30T02:50:33.900Z,93.79
2018-04-30T02:51:33.899Z,93.88
2018-04-30T02:52:33.888Z,93.88
2018-04-30T02:53:33.880Z,94.26
2018-04-30T02:54:33.874Z,93.88
2018-04-30T02:55:33.876Z,94.36
2018-04-30T02:56:33.867Z,93.98
2018-04-30T02:57:33.859Z,94.45
2018-04-30T02:58:33.854Z,94.26
2018-04-30T02:59:33.863Z,94.55
2018-04-30T03:00:33.846Z,94.17
2018-04-30T03:01:33.837Z,94.26
2018-04-30T03:02:33.860Z,93.98
2018-04-30T03:03:33.829Z,93.84
2018-04-30T03:04:33.567Z,94.12
2018-04-30T03:05:33.823Z,94.31
2018-04-30T03:06:33.813Z,94.07
2018-04-30T03:07:33.814Z,94.02
2018-04-30T03:08:33.799Z,94.02
2018-04-30T03:09:33.798Z,93.93
2018-04-30T03:10:33.788Z,94.17
2018-04-30T03:11:33.799Z,94.21
2018-04-30T03:12:33.781Z,94.21
2018-04-30T03:13:33.773Z,94.21
2018-04-30T03:14:33.843Z,94.31
2018-04-30T03:15:33.761Z,94.6
2018-04-30T03:16:33.503Z,93.74
2018-04-30T03:17:33.757Z,94.02
2018-04-30T03:18:33.496Z,94.41
2018-04-30T03:19:33.486Z,94.41
2018-04-30T03:20:33.735Z,94.5
2018-04-30T03:21:33.729Z,94.41
2018-04-30T03:22:33.723Z,94.31
2018-04-30T03:23:33.464Z,94.79
2018-04-30T03:24:33.718Z,94.41
2018-04-30T03:25:33.454Z,94.21
2018-04-30T03:26:33.701Z,95.17
2018-04-30T03:27:33.695Z,94.41
2018-04-30T03:28:33.693Z,94.41
2018-04-30T03:29:33.693Z,94.6
2018-04-30T03:30:33.680Z,94.89
2018-04-30T03:31:33.675Z,95.07
2018-04-30T03:32:33.667Z,94.41
2018-04-30T03:33:33.663Z,94.41
2018-04-30T03:34:33.657Z,94.6
2018-04-30T03:35:33.399Z,94.89
2018-04-30T03:36:33.647Z,95.07
2018-04-30T03:37:33.643Z,94.89
2018-04-30T03:38:33.645Z,94.98
2018-04-30T03:39:33.629Z,94.21
2018-04-30T03:40:33.372Z,94.79
2018-04-30T03:41:33.631Z,94.21
2018-04-30T03:42:33.614Z,94.5
2018-04-30T03:43:33.606Z,94.5
2018-04-30T03:44:33.605Z,94.31
2018-04-30T03:45:33.596Z,94.6
2018-04-30T03:46:33.592Z,94.41
2018-04-30T03:47:33.585Z,94.41
2018-04-30T03:48:33.578Z,94.6
2018-04-30T03:49:33.573Z,94.02
2018-04-30T03:50:33.570Z,94.02
2018-04-30T03:51:33.562Z,94.41
2018-04-30T03:52:33.555Z,93.93
2018-04-30T03:53:33.555Z,93.93
2018-04-30T03:54:33.544Z,94.12
2018-04-30T03:55:33.538Z,94.12
2018-04-30T03:56:33.534Z,94.12
2018-04-30T03:57:33.527Z,93.93
2018-04-30T03:58:33.524Z,94.02
2018-04-30T03:59:33.517Z,93.93
2018-04-30T04:00:33.536Z,94.21
2018-04-30T04:01:33.526Z,94.31
2018-04-30T04:02:33.520Z,94.12
2018-04-30T04:03:33.497Z,94.21
2018-04-30T04:04:33.490Z,94.21
2018-04-30T04:05:33.483Z,94.02
2018-04-30T04:06:33.481Z,94.31
2018-04-30T04:07:33.471Z,94.02
2018-04-30T04:08:33.469Z,93.84
2018-04-30T04:09:33.462Z,93.64
2018-04-30T04:10:33.454Z,93.74
2018-04-30T04:11:33.450Z,93.64
2018-04-30T04:12:33.444Z,93.45
2018-04-30T04:13:33.444Z,93.45
2018-04-30T04:14:33.432Z,93.55
2018-04-30T04:15:33.464Z,93.45
2018-04-30T04:16:33.171Z,92.88
2018-04-30T04:17:33.419Z,93.16
2018-04-30T04:18:33.415Z,93.16
2018-04-30T04:19:33.407Z,93.3
2018-04-30T04:20:33.158Z,92.83
2018-04-30T04:21:33.402Z,92.54
2018-04-30T04:22:33.391Z,92.54
2018-04-30T04:23:33.138Z,92.16
2018-04-30T04:24:33.385Z,91.77
2018-04-30T04:25:33.375Z,91.87
2018-04-30T04:26:33.374Z,91.49
2018-04-30T04:27:33.366Z,91.44
2018-04-30T04:28:33.362Z,91.53
2018-04-30T04:29:33.109Z,90.58
2018-04-30T04:30:33.352Z,90.48
2018-04-30T04:31:33.348Z,90.19
2018-04-30T04:32:33.352Z,90
2018-04-30T04:33:33.411Z,90.23
2018-04-30T04:34:33.333Z,89.57
2018-04-30T04:35:33.080Z,89.18
2018-04-30T04:36:33.330Z,88.32
2018-04-30T04:37:33.069Z,87.79
2018-04-30T04:38:33.316Z,88.08
2018-04-30T04:39:33.312Z,87.6
2018-04-30T04:40:33.314Z,87.21
2018-04-30T04:41:33.330Z,87.21
2018-04-30T04:42:33.302Z,86.93
2018-04-30T04:43:33.298Z,86.68
2018-04-30T04:44:33.299Z,86.4
2018-04-30T04:45:33.291Z,85.82
2018-04-30T04:46:33.288Z,85.44
2018-04-30T04:47:33.122Z,85.67
2018-04-30T04:48:33.280Z,85
2018-04-30T04:49:33.278Z,84.42
2018-04-30T04:50:33.273Z,84.14
2018-04-30T04:51:33.272Z,84.04
2018-04-30T04:52:33.279Z,83.41
2018-04-30T04:53:33.270Z,83.22
2018-04-30T04:54:33.264Z,82.64
2018-04-30T04:55:33.261Z,82.74
2018-04-30T04:56:33.259Z,82.54
2018-04-30T04:57:33.003Z,82.4
2018-04-30T04:58:33.253Z,82.49
2018-04-30T04:59:33.251Z,82.16
2018-04-30T05:00:33.252Z,82.4
2018-04-30T05:01:33.245Z,81.82
2018-04-30T05:02:33.247Z,81.05
2018-04-30T05:03:33.246Z,81.76
2018-04-30T05:04:33.302Z,80.99
2018-04-30T05:05:33.242Z,80.13
2018-04-30T05:06:33.245Z,80.51
2018-04-30T05:07:33.240Z,80.55
2018-04-30T05:08:33.236Z,79.4
2018-04-30T05:09:33.234Z,78.58
2018-04-30T05:10:33.233Z,78.58
2018-04-30T05:11:33.247Z,78.48
2018-04-30T05:12:33.234Z,77.56
2018-04-30T05:13:33.237Z,77.08
2018-04-30T05:14:33.231Z,77.17
2018-04-30T05:15:32.977Z,76.78
2018-04-30T05:16:33.228Z,76.01
2018-04-30T05:17:33.232Z,76.59
2018-04-30T05:18:33.228Z,76.25
2018-04-30T05:19:33.229Z,76.15
2018-04-30T05:20:33.229Z,75.28
2018-04-30T05:21:33.231Z,75.57
2018-04-30T05:22:32.977Z,74.99
2018-04-30T05:23:33.226Z,74.93
2018-04-30T05:24:32.974Z,74.74
2018-04-30T05:25:33.241Z,74.65
2018-04-30T05:26:33.243Z,74.45
2018-04-30T05:27:33.229Z,74.16
2018-04-30T05:28:33.253Z,73.97
2018-04-30T05:29:33.231Z,73.62
2018-04-30T05:30:33.233Z,72.08
2018-04-30T05:31:32.983Z,73.14
2018-04-30T05:32:33.235Z,71.7
2018-04-30T05:33:33.238Z,71.92
2018-04-30T05:34:33.235Z,71.73
2018-04-30T05:35:33.239Z,70.57
2018-04-30T05:36:32.985Z,70.8
2018-04-30T05:37:33.240Z,70.9
2018-04-30T05:38:33.241Z,70.22
2018-04-30T05:39:33.247Z,69
2018-04-30T05:40:33.246Z,67.49
2018-04-30T05:41:33.248Z,67.01
2018-04-30T05:42:33.329Z,67.2
2018-04-30T05:43:33.001Z,66.72
2018-04-30T05:44:33.255Z,66.82
2018-04-30T05:45:33.258Z,66.43
2018-04-30T05:46:33.261Z,65.37
2018-04-30T05:47:33.269Z,65.3
2018-04-30T05:48:33.268Z,65.3
2018-04-30T05:49:33.270Z,65.2
2018-04-30T05:50:33.277Z,64.53
2018-04-30T05:51:33.288Z,63.98
2018-04-30T05:52:33.029Z,63.6
2018-04-30T05:53:33.038Z,63.21
2018-04-30T05:54:33.295Z,62.66
2018-04-30T05:55:33.300Z,61.79
2018-04-30T05:56:33.318Z,61.79
2018-04-30T05:57:33.305Z,61.89
2018-04-30T05:58:33.320Z,61.79
2018-04-30T05:59:33.312Z,61.3
2018-04-30T06:00:33.464Z,61.3
2018-04-30T06:01:33.400Z,61.02
2018-04-30T06:02:33.332Z,61.33
2018-04-30T06:03:33.338Z,60.95
2018-04-30T06:04:33.080Z,60.08
2018-04-30T06:05:33.087Z,59.89
2018-04-30T06:06:33.345Z,59.63
2018-04-30T06:07:33.349Z,58.56
2018-04-30T06:08:33.354Z,58.85
2018-04-30T06:09:33.386Z,59.05
2018-04-30T06:10:33.365Z,58.69
2018-04-30T06:11:33.371Z,58.01
2018-04-30T06:12:33.380Z,58.2
2018-04-30T06:13:33.466Z,57.71
2018-04-30T06:14:33.395Z,57.45
2018-04-30T06:15:33.395Z,56.59
2018-04-30T06:16:33.151Z,56.61
2018-04-30T06:17:33.541Z,56.51
2018-04-30T06:18:33.428Z,55.57
2018-04-30T06:19:33.436Z,54.99
2018-04-30T06:20:33.429Z,54.53
2018-04-30T06:21:33.438Z,54.05
2018-04-30T06:22:33.440Z,54.07
2018-04-30T06:23:33.449Z,53.49
2018-04-30T06:24:33.456Z,51.97
2018-04-30T06:25:33.470Z,51.38
2018-04-30T06:26:33.569Z,52.15
2018-04-30T06:27:33.494Z,52.35
2018-04-30T06:28:33.525Z,52.42
2018-04-30T06:29:33.501Z,52.42
2018-04-30T06:30:33.504Z,51.87
2018-04-30T06:31:33.537Z,51.79
2018-04-30T06:32:33.274Z,51.21
2018-04-30T06:33:33.535Z,51.21
2018-04-30T06:34:33.540Z,51.11
2018-04-30T06:35:33.565Z,51.6
2018-04-30T06:36:33.593Z,50.53
2018-04-30T06:37:33.566Z,51.11
2018-04-30T06:38:33.585Z,50.16
2018-04-30T06:39:33.612Z,50.58
2018-04-30T06:40:33.612Z,49.12
2018-04-30T06:41:33.348Z,49.22
2018-04-30T06:42:33.614Z,48.95
2018-04-30T06:43:33.625Z,49.05
2018-04-30T06:44:33.630Z,48.66
2018-04-30T06:45:33.643Z,48.49
2018-04-30T06:46:33.655Z,48.78
2018-04-30T06:47:33.768Z,48.58
2018-04-30T06:48:33.681Z,48.32
2018-04-30T06:49:33.694Z,47.05
2018-04-30T06:50:33.689Z,47.27
2018-04-30T06:51:33.696Z,46.88
2018-04-30T06:52:33.716Z,46.41
2018-04-30T06:53:33.820Z,45.95
2018-04-30T06:54:33.727Z,45.46
2018-04-30T06:55:33.739Z,44.97
2018-04-30T06:56:33.749Z,44.19
2018-04-30T06:57:33.507Z,44.02
2018-04-30T06:58:33.517Z,44.31
2018-04-30T06:59:33.780Z,44.31
2018-04-30T07:00:33.540Z,43.82
2018-04-30T07:01:33.802Z,43.85
2018-04-30T07:02:33.564Z,42.48
2018-04-30T07:03:33.836Z,42.79
2018-04-30T07:04:33.842Z,42.81
2018-04-30T07:05:33.847Z,41.93
2018-04-30T07:06:33.910Z,41.17
2018-04-30T07:07:33.617Z,41.27
2018-04-30T07:08:33.885Z,41
2018-04-30T07:09:34.218Z,41
2018-04-30T07:10:33.904Z,40.63
2018-04-30T07:11:33.917Z,40.33
2018-04-30T07:12:33.932Z,39.47
2018-04-30T07:13:33.940Z,38.88
2018-04-30T07:14:33.698Z,39.09
2018-04-30T07:15:33.991Z,39.39
2018-04-30T07:16:33.724Z,38.9
2018-04-30T07:17:33.989Z,38.53
2018-04-30T07:18:34.004Z,38.43
2018-04-30T07:19:34.020Z,38.62
2018-04-30T07:20:33.775Z,37.74
2018-04-30T07:21:34.046Z,37.94
2018-04-30T07:22:34.049Z,37.76
2018-04-30T07:23:34.069Z,37.66
2018-04-30T07:24:34.078Z,37.66
2018-04-30T07:25:34.086Z,37.66
2018-04-30T07:26:34.101Z,37.56
2018-04-30T07:27:34.208Z,37.56
2018-04-30T07:28:34.127Z,37.46
2018-04-30T07:29:33.901Z,37.66
2018-04-30T07:30:34.161Z,37.76
2018-04-30T07:31:34.173Z,37.86
2018-04-30T07:32:33.928Z,37.58
2018-04-30T07:33:33.936Z,37.98
2018-04-30T07:34:34.201Z,37.58
2018-04-30T07:35:33.964Z,36.42
2018-04-30T07:36:34.237Z,36.63
2018-04-30T07:37:34.242Z,36.05
2018-04-30T07:38:34.256Z,35.77
2018-04-30T07:39:34.268Z,35.57
2018-04-30T07:40:34.287Z,35.47
2018-04-30T07:41:34.301Z,35.97
2018-04-30T07:42:34.370Z,35.85
2018-04-30T07:43:34.325Z,36.93
2018-04-30T07:44:34.339Z,36.63
2018-04-30T07:45:34.354Z,36.52
2018-04-30T07:46:34.375Z,36.34
2018-04-30T07:47:34.383Z,35.85
2018-04-30T07:48:34.396Z,35.16
2018-04-30T07:49:34.409Z,35.46
2018-04-30T07:50:34.424Z,35.34
2018-04-30T07:51:34.440Z,35.14
2018-04-30T07:52:34.455Z,35.34
2018-04-30T07:53:34.472Z,35.52
2018-04-30T07:54:34.537Z,35.91
2018-04-30T07:55:34.506Z,36.21
2018-04-30T07:56:34.512Z,36.6
2018-04-30T07:57:34.530Z,36.39
2018-04-30T07:58:34.544Z,36.39
2018-04-30T07:59:34.561Z,36.19
2018-04-30T08:00:34.570Z,36.4
2018-04-30T08:01:34.595Z,36.51
2018-04-30T08:02:34.608Z,36.3
2018-04-30T08:03:34.617Z,35.91
2018-04-30T08:04:34.630Z,35.23
2018-04-30T08:05:34.395Z,35.6
2018-04-30T08:06:34.664Z,36.58
2018-04-30T08:07:34.681Z,37.45
2018-04-30T08:08:34.692Z,36.57
2018-04-30T08:09:34.721Z,35.97
2018-04-30T08:10:34.732Z,36.39
2018-04-30T08:11:34.741Z,36.39
2018-04-30T08:12:34.757Z,36.47
2018-04-30T08:13:34.776Z,36.37
2018-04-30T08:14:34.791Z,36.76
2018-04-30T08:15:34.797Z,36.88
2018-04-30T08:16:34.813Z,36.39
2018-04-30T08:17:34.826Z,36.86
2018-04-30T08:18:34.847Z,37.35
2018-04-30T08:19:34.870Z,37.65
2018-04-30T08:20:34.873Z,37.52
2018-04-30T08:21:35.008Z,37.33
2018-04-30T08:22:34.647Z,37.92
2018-04-30T08:23:34.914Z,37.9
2018-04-30T08:24:34.932Z,38.39
2018-04-30T08:25:34.946Z,38.2
2018-04-30T08:26:34.956Z,38.1
2018-04-30T08:27:34.973Z,38.49
2018-04-30T08:28:34.983Z,38.39
2018-04-30T08:29:34.996Z,38.49
2018-04-30T08:30:35.014Z,38.59
2018-04-30T08:31:35.032Z,37.51
2018-04-30T08:32:35.045Z,38.59
2018-04-30T08:33:35.069Z,37.88
2018-04-30T08:34:35.072Z,38.28
2018-04-30T08:35:34.850Z,38.75
2018-04-30T08:36:34.893Z,38.45
2018-04-30T08:37:35.110Z,38.82
2018-04-30T08:38:35.120Z,38.32
2018-04-30T08:39:34.888Z,38.51
2018-04-30T08:40:34.890Z,39.18
2018-04-30T08:41:35.153Z,39.84
2018-04-30T08:42:35.167Z,40.23
2018-04-30T08:43:35.183Z,40.7
2018-04-30T08:44:35.188Z,41.28
2018-04-30T08:45:35.200Z,41.66
2018-04-30T08:46:35.218Z,41.85
2018-04-30T08:47:35.222Z,42.32
2018-04-30T08:48:35.228Z,42.51
2018-04-30T08:49:35.240Z,42.9
2018-04-30T08:50:35.252Z,42.61
2018-04-30T08:51:35.281Z,42.88
2018-04-30T08:52:35.271Z,42.88
2018-04-30T08:53:35.295Z,43.66
2018-04-30T08:54:35.295Z,44.62
2018-04-30T08:55:35.322Z,44.98
2018-04-30T08:56:35.312Z,45.86
2018-04-30T08:57:35.315Z,45.76
2018-04-30T08:58:35.321Z,45.67
2018-04-30T08:59:35.336Z,45.95
2018-04-30T09:00:35.377Z,46.51
2018-04-30T09:01:35.355Z,46.34
2018-04-30T09:02:35.348Z,46.23
2018-04-30T09:03:35.362Z,46.81
2018-04-30T09:04:35.108Z,46.61
2018-04-30T09:05:35.115Z,47.2
2018-04-30T09:06:35.373Z,47
2018-04-30T09:07:35.379Z,47.17
2018-04-30T09:08:35.389Z,47.86
2018-04-30T09:09:35.456Z,48.15
2018-04-30T09:10:35.403Z,48.54
2018-04-30T09:11:35.405Z,48.25
2018-04-30T09:12:35.413Z,48.22
2018-04-30T09:13:35.164Z,48.05
2018-04-30T09:14:35.431Z,47.93
2018-04-30T09:15:35.429Z,46.86
2018-04-30T09:16:35.468Z,47.25
2018-04-30T09:17:35.186Z,46.77
2018-04-30T09:18:35.197Z,46.86
2018-04-30T09:19:35.449Z,46.84
2018-04-30T09:20:35.242Z,47.03
2018-04-30T09:21:35.464Z,47.03
2018-04-30T09:22:35.466Z,47.52
2018-04-30T09:23:35.472Z,48.1
2018-04-30T09:24:35.480Z,47.42
2018-04-30T09:25:35.481Z,46.84
2018-04-30T09:26:35.493Z,46.94
2018-04-30T09:27:35.493Z,47.42
2018-04-30T09:28:35.498Z,47.23
2018-04-30T09:29:35.514Z,47.81
2018-04-30T09:30:35.508Z,46.84
2018-04-30T09:31:35.518Z,47.32
2018-04-30T09:32:35.523Z,47.91
2018-04-30T09:33:35.521Z,47.05
2018-04-30T09:34:35.551Z,46.96
2018-04-30T09:35:35.531Z,46.86
2018-04-30T09:36:35.555Z,47.93
2018-04-30T09:37:35.542Z,46.77
2018-04-30T09:38:35.550Z,47.05
2018-04-30T09:39:35.557Z,47.13
2018-04-30T09:40:35.556Z,47.32
2018-04-30T09:41:35.561Z,48.2
2018-04-30T09:42:35.579Z,48.88
2018-04-30T09:43:35.571Z,49.56
2018-04-30T09:44:35.323Z,48.68
2018-04-30T09:45:35.587Z,49.68
2018-04-30T09:46:35.589Z,48.9
2018-04-30T09:47:35.592Z,48.32
2018-04-30T09:48:35.608Z,49.1
2018-04-30T09:49:35.600Z,48.71
2018-04-30T09:50:35.607Z,48.71
2018-04-30T09:51:35.611Z,48.61
2018-04-30T09:52:35.615Z,48.22
2018-04-30T09:53:35.374Z,48.32
2018-04-30T09:54:35.625Z,48.22
2018-04-30T09:55:35.631Z,48.51
2018-04-30T09:56:35.640Z,48.61
2018-04-30T09:57:35.693Z,49.22
2018-04-30T09:58:35.648Z,49.8
2018-04-30T09:59:35.689Z,49.9
2018-04-30T10:00:35.660Z,50.38
2018-04-30T10:01:35.660Z,49.99
2018-04-30T10:02:35.665Z,50.31
2018-04-30T10:03:35.672Z,50.51
2018-04-30T10:04:35.676Z,50.6
2018-04-30T10:05:35.685Z,50.87
2018-04-30T10:06:35.698Z,50.68
2018-04-30T10:07:35.693Z,50.48
2018-04-30T10:08:35.699Z,50.97
2018-04-30T10:09:35.714Z,51.07
2018-04-30T10:10:35.456Z,51.53
2018-04-30T10:11:35.715Z,51.62
2018-04-30T10:12:35.718Z,51.82
2018-04-30T10:13:35.725Z,52.28
2018-04-30T10:14:35.729Z,51.89
2018-04-30T10:15:35.735Z,52.19
2018-04-30T10:16:35.741Z,52.64
2018-04-30T10:17:35.748Z,52.64
2018-04-30T10:18:35.750Z,52.64
2018-04-30T10:19:35.760Z,52.62
2018-04-30T10:20:35.761Z,52.72
2018-04-30T10:21:35.771Z,52.72
2018-04-30T10:22:35.776Z,53.47
2018-04-30T10:23:36.059Z,53.66
2018-04-30T10:24:35.780Z,52.5
2018-04-30T10:25:35.807Z,52.4
2018-04-30T10:26:35.790Z,51.91
2018-04-30T10:27:35.802Z,51.91
2018-04-30T10:28:35.924Z,52.2
2018-04-30T10:29:35.551Z,52.37
2018-04-30T10:30:35.814Z,52.08
2018-04-30T10:31:35.983Z,52.18
2018-04-30T10:32:35.563Z,52.25
2018-04-30T10:33:35.824Z,52.28
2018-04-30T10:34:35.571Z,52.28
2018-04-30T10:35:35.827Z,51.98
2018-04-30T10:36:35.833Z,51.4
2018-04-30T10:37:35.837Z,51.01
2018-04-30T10:38:35.841Z,50.53
2018-04-30T10:39:35.847Z,51.11
2018-04-30T10:40:35.855Z,51.21
2018-04-30T10:41:35.853Z,50.82
2018-04-30T10:42:35.859Z,50.43
2018-04-30T10:43:35.862Z,50.34
2018-04-30T10:44:35.873Z,50.62
2018-04-30T10:45:35.878Z,50.62
2018-04-30T10:46:35.873Z,50.43
2018-04-30T10:47:35.876Z,50.26
2018-04-30T10:48:35.882Z,49.95
2018-04-30T10:49:35.885Z,49.85
2018-04-30T10:50:35.636Z,49.95
2018-04-30T10:51:36.007Z,49.85
2018-04-30T10:52:35.902Z,49.95
2018-04-30T10:53:35.911Z,50.41
2018-04-30T10:54:35.904Z,50.79
2018-04-30T10:55:35.907Z,50.67
2018-04-30T10:56:35.908Z,51.35
2018-04-30T10:57:35.664Z,51.74
2018-04-30T10:58:35.916Z,52.12
2018-04-30T10:59:35.938Z,52.22
2018-04-30T11:00:35.931Z,52.03
2018-04-30T11:01:35.925Z,52.12
2018-04-30T11:02:35.741Z,52.03
2018-04-30T11:03:35.943Z,51.93
2018-04-30T11:04:35.942Z,51.74
2018-04-30T11:05:35.956Z,51.45
2018-04-30T11:06:35.956Z,50.02
2018-04-30T11:07:35.949Z,49.73
2018-04-30T11:08:35.971Z,49.66
2018-04-30T11:09:35.955Z,49.66
2018-04-30T11:10:35.965Z,49.46
2018-04-30T11:11:35.975Z,49.46
2018-04-30T11:12:35.731Z,49.56
2018-04-30T11:13:35.985Z,49.46
2018-04-30T11:14:35.973Z,49.63
2018-04-30T11:15:35.973Z,49.75
2018-04-30T11:16:35.978Z,49.46
2018-04-30T11:17:35.985Z,49.66
2018-04-30T11:18:35.987Z,49.56
2018-04-30T11:19:35.991Z,49.56
2018-04-30T11:20:36.006Z,49.46
2018-04-30T11:21:36.008Z,49.54
2018-04-30T11:22:35.748Z,49.66
2018-04-30T11:23:36.005Z,49.73
2018-04-30T11:24:36.010Z,48.39
2018-04-30T11:25:36.013Z,48.39
2018-04-30T11:26:36.020Z,48.3
2018-04-30T11:27:36.160Z,48.1
2018-04-30T11:28:36.027Z,47.93
2018-04-30T11:29:36.029Z,47.74
2018-04-30T11:30:36.068Z,47.45
2018-04-30T11:31:36.038Z,47.35
2018-04-30T11:32:36.116Z,46.96
2018-04-30T11:33:36.076Z,46.77
2018-04-30T11:34:36.061Z,46.38
2018-04-30T11:35:36.061Z,46.21
2018-04-30T11:36:36.092Z,45.82
2018-04-30T11:37:36.071Z,45.62
2018-04-30T11:38:36.676Z,44.75
2018-04-30T11:39:36.078Z,44.65
2018-04-30T11:40:36.088Z,44.38
2018-04-30T11:41:36.091Z,43.51
2018-04-30T11:42:35.833Z,42.25
2018-04-30T11:43:36.118Z,41.38
2018-04-30T11:44:36.101Z,40.99
2018-04-30T11:45:36.118Z,40.41
2018-04-30T11:46:36.115Z,40.69
2018-04-30T11:47:36.562Z,40.41
2018-04-30T11:48:36.120Z,40.29
2018-04-30T11:49:36.070Z,40.29
2018-04-30T11:50:35.869Z,40.77
2018-04-30T11:51:36.135Z,40.46
2018-04-30T11:52:35.878Z,40.56
2018-04-30T11:53:36.149Z,41.05
2018-04-30T11:54:36.150Z,40.85
2018-04-30T11:55:36.154Z,40.95
2018-04-30T11:56:36.613Z,40.85
2018-04-30T11:57:36.157Z,40.34
2018-04-30T11:58:36.247Z,41.02
2018-04-30T11:59:36.186Z,41.02
2018-04-30T12:00:36.170Z,40.92
2018-04-30T12:01:36.182Z,41.02
2018-04-30T12:02:36.359Z,41.05
2018-04-30T12:03:36.190Z,41.12
2018-04-30T12:04:36.194Z,41.41
2018-04-30T12:05:36.653Z,41.22
2018-04-30T12:06:35.951Z,41.2
2018-04-30T12:07:35.953Z,41.88
2018-04-30T12:08:36.213Z,41.68
2018-04-30T12:09:36.207Z,41.58
2018-04-30T12:10:35.950Z,41.58
2018-04-30T12:11:36.216Z,42.34
2018-04-30T12:12:36.229Z,42.24
2018-04-30T12:13:35.967Z,42.72
2018-04-30T12:14:36.788Z,42.71
2018-04-30T12:15:36.227Z,43.29
2018-04-30T12:16:36.426Z,43.87
2018-04-30T12:17:36.253Z,43.96
2018-04-30T12:18:36.247Z,43.87
2018-04-30T12:19:36.243Z,44.04
2018-04-30T12:20:35.980Z,43.95
2018-04-30T12:21:36.244Z,43.85
2018-04-30T12:22:36.248Z,44.13
2018-04-30T12:23:36.799Z,44.33
2018-04-30T12:24:36.266Z,44.33
2018-04-30T12:25:36.250Z,44.6
2018-04-30T12:26:36.265Z,44.79
2018-04-30T12:27:36.263Z,45.18
2018-04-30T12:28:36.260Z,45.18
2018-04-30T12:29:36.265Z,45.08
2018-04-30T12:30:36.269Z,45.57
2018-04-30T12:31:36.274Z,45.66
2018-04-30T12:32:36.012Z,45.93
2018-04-30T12:33:36.445Z,45.86
2018-04-30T12:34:36.013Z,45.95
2018-04-30T12:35:36.280Z,45.86
2018-04-30T12:36:36.278Z,46.05
2018-04-30T12:37:36.292Z,47.11
2018-04-30T12:38:36.275Z,46.34
2018-04-30T12:39:36.347Z,45.95
2018-04-30T12:40:36.288Z,46.34
2018-04-30T12:41:37.580Z,45.95
2018-04-30T12:42:36.283Z,45.66
2018-04-30T12:44:36.289Z,45.68
2018-04-30T12:45:36.029Z,45.68
2018-04-30T12:46:36.294Z,45.59
2018-04-30T12:47:36.296Z,45.01
2018-04-30T12:48:36.302Z,45.1
2018-04-30T12:49:36.525Z,45.2
2018-04-30T12:50:36.039Z,45.13
2018-04-30T12:51:36.043Z,45.22
2018-04-30T12:52:36.046Z,44.93
2018-04-30T12:53:36.046Z,44.93
2018-04-30T12:54:36.306Z,44.74
2018-04-30T12:55:36.311Z,44.57
2018-04-30T12:56:36.322Z,44.27